sensor_id;sensor_type;location;lat;lon;timestamp;pressure;altitude;pressure_sealevel;temperature;humidity
45369;BME280;51342;55.250;37.668;2023-01-29T00:02:30;99828.25;;;-2.15;80.37
45369;BME280;51342;55.250;37.668;2023-01-29T00:05:04;99818.13;;;-2.15;80.34
45369;BME280;51342;55.250;37.668;2023-01-29T00:07:36;99817.03;;;-2.17;80.20
45369;BME280;51342;55.250;37.668;2023-01-29T00:10:08;99814.66;;;-2.16;80.29
45369;BME280;51342;55.250;37.668;2023-01-29T00:12:39;99816.63;;;-2.13;80.06
45369;BME280;51342;55.250;37.668;2023-01-29T00:15:11;99813.03;;;-2.15;80.23
45369;BME280;51342;55.250;37.668;2023-01-29T00:17:42;99807.97;;;-2.15;80.22
45369;BME280;51342;55.250;37.668;2023-01-29T00:20:14;99805.59;;;-2.14;80.17
45369;BME280;51342;55.250;37.668;2023-01-29T00:22:46;99803.81;;;-2.15;79.92
45369;BME280;51342;55.250;37.668;2023-01-29T00:25:17;99805.44;;;-2.15;80.03
45369;BME280;51342;55.250;37.668;2023-01-29T00:27:49;99804.50;;;-2.16;80.22
45369;BME280;51342;55.250;37.668;2023-01-29T00:30:20;99803.63;;;-2.16;80.00
45369;BME280;51342;55.250;37.668;2023-01-29T00:32:54;99789.56;;;-2.21;79.98
45369;BME280;51342;55.250;37.668;2023-01-29T00:35:26;99800.78;;;-2.19;79.92
45369;BME280;51342;55.250;37.668;2023-01-29T00:37:57;99793.41;;;-2.25;80.04
45369;BME280;51342;55.250;37.668;2023-01-29T00:40:29;99798.06;;;-2.21;80.20
45369;BME280;51342;55.250;37.668;2023-01-29T00:43:20;99799.53;;;-2.23;80.08
45369;BME280;51342;55.250;37.668;2023-01-29T00:46:10;99800.25;;;-2.24;80.33
45369;BME280;51342;55.250;37.668;2023-01-29T00:48:42;99797.56;;;-2.25;80.24
45369;BME280;51342;55.250;37.668;2023-01-29T00:51:14;99794.28;;;-2.24;80.10
45369;BME280;51342;55.250;37.668;2023-01-29T00:53:45;99796.09;;;-2.23;79.99
45369;BME280;51342;55.250;37.668;2023-01-29T00:56:17;99789.22;;;-2.24;80.01
45369;BME280;51342;55.250;37.668;2023-01-29T00:58:48;99779.84;;;-2.25;79.92
45369;BME280;51342;55.250;37.668;2023-01-29T01:01:20;99771.00;;;-2.29;79.74
45369;BME280;51342;55.250;37.668;2023-01-29T01:04:12;99781.88;;;-2.30;79.88
45369;BME280;51342;55.250;37.668;2023-01-29T01:06:43;99780.06;;;-2.31;79.98
45369;BME280;51342;55.250;37.668;2023-01-29T01:09:15;99777.69;;;-2.29;79.87
45369;BME280;51342;55.250;37.668;2023-01-29T01:12:05;99774.84;;;-2.32;79.71
45369;BME280;51342;55.250;37.668;2023-01-29T01:14:37;99768.47;;;-2.29;79.80
45369;BME280;51342;55.250;37.668;2023-01-29T01:17:08;99767.56;;;-2.29;79.85
45369;BME280;51342;55.250;37.668;2023-01-29T01:19:40;99765.75;;;-2.30;79.72
45369;BME280;51342;55.250;37.668;2023-01-29T01:22:12;99765.75;;;-2.30;79.61
45369;BME280;51342;55.250;37.668;2023-01-29T01:24:43;99774.84;;;-2.32;79.88
45369;BME280;51342;55.250;37.668;2023-01-29T01:27:15;99778.97;;;-2.33;79.72
45369;BME280;51342;55.250;37.668;2023-01-29T01:29:46;99777.19;;;-2.34;79.59
45369;BME280;51342;55.250;37.668;2023-01-29T01:32:18;99775.56;;;-2.33;79.64
45369;BME280;51342;55.250;37.668;2023-01-29T01:34:51;99771.06;;;-2.36;79.61
45369;BME280;51342;55.250;37.668;2023-01-29T01:37:22;99764.22;;;-2.37;79.80
45369;BME280;51342;55.250;37.668;2023-01-29T01:39:53;99768.19;;;-2.39;79.73
45369;BME280;51342;55.250;37.668;2023-01-29T01:42:28;99769.28;;;-2.37;79.69
45369;BME280;51342;55.250;37.668;2023-01-29T01:45:04;99765.50;;;-2.41;79.57
45369;BME280;51342;55.250;37.668;2023-01-29T01:47:45;99759.38;;;-2.43;79.56
45369;BME280;51342;55.250;37.668;2023-01-29T01:50:33;99763.19;;;-2.46;79.48
45369;BME280;51342;55.250;37.668;2023-01-29T01:53:11;99753.66;;;-2.49;79.48
45369;BME280;51342;55.250;37.668;2023-01-29T01:55:44;99762.09;;;-2.64;80.07
45369;BME280;51342;55.250;37.668;2023-01-29T01:58:28;99757.31;;;-2.54;79.83
45369;BME280;51342;55.250;37.668;2023-01-29T02:01:05;99760.34;;;-2.49;79.77
45369;BME280;51342;55.250;37.668;2023-01-29T02:03:42;99757.81;;;-2.49;79.96
45369;BME280;51342;55.250;37.668;2023-01-29T02:06:38;99744.81;;;-2.52;79.72
45369;BME280;51342;55.250;37.668;2023-01-29T02:09:55;99743.34;;;-2.50;79.75
45369;BME280;51342;55.250;37.668;2023-01-29T02:12:26;99740.25;;;-2.48;79.84
45369;BME280;51342;55.250;37.668;2023-01-29T02:15:03;99738.03;;;-2.45;79.68
45369;BME280;51342;55.250;37.668;2023-01-29T02:17:35;99728.09;;;-2.43;79.63
45369;BME280;51342;55.250;37.668;2023-01-29T02:20:17;99730.44;;;-2.45;79.40
45369;BME280;51342;55.250;37.668;2023-01-29T02:31:55;99720.72;;;-2.49;79.53
45369;BME280;51342;55.250;37.668;2023-01-29T02:34:46;99719.31;;;-2.54;79.42
45369;BME280;51342;55.250;37.668;2023-01-29T02:40:30;99707.88;;;-2.50;79.47
45369;BME280;51342;55.250;37.668;2023-01-29T02:45:49;99707.56;;;-2.53;79.48
45369;BME280;51342;55.250;37.668;2023-01-29T02:48:24;99711.72;;;-2.54;79.40
45369;BME280;51342;55.250;37.668;2023-01-29T02:51:04;99717.69;;;-2.53;79.70
45369;BME280;51342;55.250;37.668;2023-01-29T02:56:26;99703.69;;;-2.50;79.30
45369;BME280;51342;55.250;37.668;2023-01-29T02:59:12;99705.53;;;-2.49;79.24
45369;BME280;51342;55.250;37.668;2023-01-29T03:01:48;99708.06;;;-2.49;79.50
45369;BME280;51342;55.250;37.668;2023-01-29T03:04:26;99695.22;;;-2.50;79.43
45369;BME280;51342;55.250;37.668;2023-01-29T03:07:05;99697.03;;;-2.49;79.46
45369;BME280;51342;55.250;37.668;2023-01-29T03:09:46;99690.88;;;-2.51;79.35
45369;BME280;51342;55.250;37.668;2023-01-29T03:12:22;99683.63;;;-2.48;79.40
45369;BME280;51342;55.250;37.668;2023-01-29T03:15:15;99686.91;;;-2.49;79.29
45369;BME280;51342;55.250;37.668;2023-01-29T03:18:08;99662.72;;;-2.54;79.53
45369;BME280;51342;55.250;37.668;2023-01-29T03:20:51;99681.84;;;-2.49;79.33
45369;BME280;51342;55.250;37.668;2023-01-29T03:23:28;99667.53;;;-2.49;79.39
45369;BME280;51342;55.250;37.668;2023-01-29T03:26:20;99676.75;;;-2.49;79.50
45369;BME280;51342;55.250;37.668;2023-01-29T03:29:11;99667.19;;;-2.52;79.35
45369;BME280;51342;55.250;37.668;2023-01-29T03:32:03;99665.41;;;-2.53;79.54
45369;BME280;51342;55.250;37.668;2023-01-29T03:34:45;99656.00;;;-2.54;79.42
45369;BME280;51342;55.250;37.668;2023-01-29T03:37:35;99661.97;;;-2.53;79.42
45369;BME280;51342;55.250;37.668;2023-01-29T03:40:10;99653.78;;;-2.51;79.31
45369;BME280;51342;55.250;37.668;2023-01-29T03:45:35;99645.69;;;-2.55;79.29
45369;BME280;51342;55.250;37.668;2023-01-29T03:48:39;99636.47;;;-2.55;79.40
45369;BME280;51342;55.250;37.668;2023-01-29T03:51:24;99637.19;;;-2.56;79.28
45369;BME280;51342;55.250;37.668;2023-01-29T03:54:13;99636.16;;;-2.58;79.37
45369;BME280;51342;55.250;37.668;2023-01-29T03:56:55;99634.84;;;-2.54;79.26
45369;BME280;51342;55.250;37.668;2023-01-29T04:02:32;99643.00;;;-2.57;79.09
45369;BME280;51342;55.250;37.668;2023-01-29T04:05:14;99630.19;;;-2.58;79.44
45369;BME280;51342;55.250;37.668;2023-01-29T04:08:05;99621.09;;;-2.56;79.42
45369;BME280;51342;55.250;37.668;2023-01-29T04:10:39;99618.75;;;-2.55;79.50
45369;BME280;51342;55.250;37.668;2023-01-29T04:13:13;99612.06;;;-2.54;79.36
45369;BME280;51342;55.250;37.668;2023-01-29T04:15:51;99620.53;;;-2.54;79.23
45369;BME280;51342;55.250;37.668;2023-01-29T04:18:32;99618.91;;;-2.53;79.42
45369;BME280;51342;55.250;37.668;2023-01-29T04:21:13;99612.44;;;-2.58;79.11
45369;BME280;51342;55.250;37.668;2023-01-29T04:23:45;99614.97;;;-2.58;78.99
45369;BME280;51342;55.250;37.668;2023-01-29T04:29:25;99615.81;;;-2.67;79.04
45369;BME280;51342;55.250;37.668;2023-01-29T04:32:13;99610.75;;;-2.67;79.12
45369;BME280;51342;55.250;37.668;2023-01-29T04:38:49;99602.41;;;-2.81;78.84
45369;BME280;51342;55.250;37.668;2023-01-29T04:41:28;99597.25;;;-2.90;79.00
45369;BME280;51342;55.250;37.668;2023-01-29T04:49:39;99594.00;;;-2.89;78.89
45369;BME280;51342;55.250;37.668;2023-01-29T04:52:23;99597.59;;;-2.87;78.53
45369;BME280;51342;55.250;37.668;2023-01-29T04:55:19;99600.50;;;-2.91;78.63
45369;BME280;51342;55.250;37.668;2023-01-29T05:00:45;99597.97;;;-2.91;78.49
45369;BME280;51342;55.250;37.668;2023-01-29T05:03:22;99601.75;;;-2.87;79.05
45369;BME280;51342;55.250;37.668;2023-01-29T05:05:56;99598.31;;;-2.88;78.75
45369;BME280;51342;55.250;37.668;2023-01-29T05:08:31;99592.38;;;-2.88;78.40
45369;BME280;51342;55.250;37.668;2023-01-29T05:11:04;99580.66;;;-2.95;78.44
45369;BME280;51342;55.250;37.668;2023-01-29T05:13:38;99593.91;;;-2.98;78.18
45369;BME280;51342;55.250;37.668;2023-01-29T05:16:25;99588.34;;;-3.02;78.17
45369;BME280;51342;55.250;37.668;2023-01-29T05:18:57;99586.31;;;-2.98;78.70
45369;BME280;51342;55.250;37.668;2023-01-29T05:21:29;99586.31;;;-2.98;78.59
45369;BME280;51342;55.250;37.668;2023-01-29T05:24:21;99588.91;;;-3.05;78.38
45369;BME280;51342;55.250;37.668;2023-01-29T05:26:53;99581.63;;;-3.02;78.21
45369;BME280;51342;55.250;37.668;2023-01-29T05:29:47;99572.50;;;-3.08;78.15
45369;BME280;51342;55.250;37.668;2023-01-29T05:32:18;99576.81;;;-3.07;78.23
45369;BME280;51342;55.250;37.668;2023-01-29T05:34:49;99575.75;;;-3.09;78.18
45369;BME280;51342;55.250;37.668;2023-01-29T05:37:21;99579.19;;;-3.09;78.24
45369;BME280;51342;55.250;37.668;2023-01-29T05:39:52;99585.88;;;-3.09;77.93
45369;BME280;51342;55.250;37.668;2023-01-29T05:42:24;99587.53;;;-3.10;77.79
45369;BME280;51342;55.250;37.668;2023-01-29T05:44:55;99579.03;;;-3.10;77.81
45369;BME280;51342;55.250;37.668;2023-01-29T05:47:26;99578.69;;;-3.13;77.74
45369;BME280;51342;55.250;37.668;2023-01-29T05:49:58;99575.41;;;-3.12;77.64
45369;BME280;51342;55.250;37.668;2023-01-29T05:52:29;99576.75;;;-3.16;77.90
45369;BME280;51342;55.250;37.668;2023-01-29T05:55:01;99580.47;;;-3.12;77.79
45369;BME280;51342;55.250;37.668;2023-01-29T05:57:32;99581.41;;;-3.12;77.69
45369;BME280;51342;55.250;37.668;2023-01-29T06:00:04;99587.19;;;-3.13;77.48
45369;BME280;51342;55.250;37.668;2023-01-29T06:02:43;99585.53;;;-3.12;77.56
45369;BME280;51342;55.250;37.668;2023-01-29T06:05:14;99576.34;;;-3.12;77.53
45369;BME280;51342;55.250;37.668;2023-01-29T06:07:46;99579.03;;;-3.10;77.51
45369;BME280;51342;55.250;37.668;2023-01-29T06:10:17;99567.34;;;-3.17;77.45
45369;BME280;51342;55.250;37.668;2023-01-29T06:12:49;99572.22;;;-3.18;77.42
45369;BME280;51342;55.250;37.668;2023-01-29T06:15:20;99564.25;;;-3.14;77.17
45369;BME280;51342;55.250;37.668;2023-01-29T06:17:56;99576.00;;;-3.15;77.22
45369;BME280;51342;55.250;37.668;2023-01-29T06:20:27;99580.31;;;-3.14;77.16
45369;BME280;51342;55.250;37.668;2023-01-29T06:22:59;99579.44;;;-3.14;77.29
45369;BME280;51342;55.250;37.668;2023-01-29T06:25:30;99579.59;;;-3.13;77.21
45369;BME280;51342;55.250;37.668;2023-01-29T06:28:05;99577.28;;;-3.18;77.03
45369;BME280;51342;55.250;37.668;2023-01-29T06:30:36;99581.97;;;-3.14;77.17
45369;BME280;51342;55.250;37.668;2023-01-29T06:33:08;99587.03;;;-3.14;77.30
45369;BME280;51342;55.250;37.668;2023-01-29T06:35:39;99580.72;;;-3.18;77.52
45369;BME280;51342;55.250;37.668;2023-01-29T06:38:10;99583.75;;;-3.13;77.21
45369;BME280;51342;55.250;37.668;2023-01-29T06:40:42;99580.66;;;-3.11;77.39
45369;BME280;51342;55.250;37.668;2023-01-29T06:43:13;99577.25;;;-3.11;77.43
45369;BME280;51342;55.250;37.668;2023-01-29T06:45:55;99570.19;;;-3.14;77.41
45369;BME280;51342;55.250;37.668;2023-01-29T06:48:27;99578.13;;;-3.11;77.09
45369;BME280;51342;55.250;37.668;2023-01-29T06:51:03;99566.53;;;-3.09;77.40
45369;BME280;51342;55.250;37.668;2023-01-29T06:53:36;99572.50;;;-3.08;77.03
45369;BME280;51342;55.250;37.668;2023-01-29T06:56:08;99569.81;;;-3.10;77.33
45369;BME280;51342;55.250;37.668;2023-01-29T06:58:39;99564.91;;;-3.08;77.32
45369;BME280;51342;55.250;37.668;2023-01-29T07:01:11;99559.28;;;-3.06;77.44
45369;BME280;51342;55.250;37.668;2023-01-29T07:03:43;99563.78;;;-3.03;77.47
45369;BME280;51342;55.250;37.668;2023-01-29T07:06:15;99563.03;;;-3.02;77.33
45369;BME280;51342;55.250;37.668;2023-01-29T07:08:46;99557.06;;;-3.03;77.40
45369;BME280;51342;55.250;37.668;2023-01-29T07:11:17;99545.31;;;-3.02;77.40
45369;BME280;51342;55.250;37.668;2023-01-29T07:13:49;99544.25;;;-3.04;77.33
45369;BME280;51342;55.250;37.668;2023-01-29T07:16:20;99543.53;;;-3.03;77.29
45369;BME280;51342;55.250;37.668;2023-01-29T07:18:51;99541.00;;;-3.03;77.28
45369;BME280;51342;55.250;37.668;2023-01-29T07:21:23;99532.66;;;-3.02;77.26
45369;BME280;51342;55.250;37.668;2023-01-29T07:23:55;99538.63;;;-3.02;77.21
45369;BME280;51342;55.250;37.668;2023-01-29T07:26:26;99524.31;;;-3.01;77.21
45369;BME280;51342;55.250;37.668;2023-01-29T07:28:57;99527.94;;;-2.99;77.24
45369;BME280;51342;55.250;37.668;2023-01-29T07:31:29;99533.75;;;-3.00;77.03
45369;BME280;51342;55.250;37.668;2023-01-29T07:34:00;99538.81;;;-3.00;77.13
45369;BME280;51342;55.250;37.668;2023-01-29T07:36:32;99523.88;;;-3.06;77.12
45369;BME280;51342;55.250;37.668;2023-01-29T07:39:03;99527.59;;;-3.02;77.16
45369;BME280;51342;55.250;37.668;2023-01-29T07:41:35;99525.81;;;-3.03;77.20
45369;BME280;51342;55.250;37.668;2023-01-29T07:44:12;99520.22;;;-3.24;77.54
45369;BME280;51342;55.250;37.668;2023-01-29T07:46:43;99527.69;;;-3.09;77.52
45369;BME280;51342;55.250;37.668;2023-01-29T07:49:15;99522.22;;;-3.05;77.25
45369;BME280;51342;55.250;37.668;2023-01-29T07:51:47;99525.81;;;-3.03;77.29
45369;BME280;51342;55.250;37.668;2023-01-29T07:54:18;99524.31;;;-3.01;77.41
45369;BME280;51342;55.250;37.668;2023-01-29T07:56:49;99520.91;;;-3.02;77.15
45369;BME280;51342;55.250;37.668;2023-01-29T07:59:21;99529.72;;;-2.98;77.40
45369;BME280;51342;55.250;37.668;2023-01-29T08:01:52;99530.03;;;-2.95;77.39
45369;BME280;51342;55.250;37.668;2023-01-29T08:04:24;99526.06;;;-2.93;77.22
45369;BME280;51342;55.250;37.668;2023-01-29T08:06:55;99533.81;;;-2.91;77.46
45369;BME280;51342;55.250;37.668;2023-01-29T08:09:26;99528.75;;;-2.91;77.30
45369;BME280;51342;55.250;37.668;2023-01-29T08:11:58;99532.50;;;-2.88;77.42
45369;BME280;51342;55.250;37.668;2023-01-29T08:14:29;99530.13;;;-2.86;77.11
45369;BME280;51342;55.250;37.668;2023-01-29T08:17:01;99526.84;;;-2.85;77.41
45369;BME280;51342;55.250;37.668;2023-01-29T08:19:32;99528.09;;;-2.82;77.47
45369;BME280;51342;55.250;37.668;2023-01-29T08:22:04;99529.13;;;-2.80;77.52
45369;BME280;51342;55.250;37.668;2023-01-29T08:24:36;99526.59;;;-2.80;77.53
45369;BME280;51342;55.250;37.668;2023-01-29T08:27:07;99517.38;;;-2.79;77.49
45369;BME280;51342;55.250;37.668;2023-01-29T08:29:39;99515.03;;;-2.78;77.58
45369;BME280;51342;55.250;37.668;2023-01-29T08:32:10;99503.28;;;-2.77;77.41
45369;BME280;51342;55.250;37.668;2023-01-29T08:34:47;99500.31;;;-2.73;77.41
45369;BME280;51342;55.250;37.668;2023-01-29T08:37:21;99499.00;;;-2.70;77.38
45369;BME280;51342;55.250;37.668;2023-01-29T08:39:57;99503.66;;;-2.65;77.41
45369;BME280;51342;55.250;37.668;2023-01-29T08:42:34;99494.09;;;-2.68;77.32
45369;BME280;51342;55.250;37.668;2023-01-29T08:45:06;99487.72;;;-2.64;77.41
45369;BME280;51342;55.250;37.668;2023-01-29T08:47:44;99487.31;;;-2.60;77.35
45369;BME280;51342;55.250;37.668;2023-01-29T08:50:17;99490.16;;;-2.57;77.49
45369;BME280;51342;55.250;37.668;2023-01-29T08:52:49;99482.69;;;-2.56;77.42
45369;BME280;51342;55.250;37.668;2023-01-29T08:55:20;99489.41;;;-2.56;77.35
45369;BME280;51342;55.250;37.668;2023-01-29T08:57:55;99490.47;;;-2.54;77.29
45369;BME280;51342;55.250;37.668;2023-01-29T09:00:30;99490.78;;;-2.51;77.27
45369;BME280;51342;55.250;37.668;2023-01-29T09:03:03;99482.44;;;-2.50;77.29
45369;BME280;51342;55.250;37.668;2023-01-29T09:05:38;99480.25;;;-2.47;77.42
45369;BME280;51342;55.250;37.668;2023-01-29T09:08:10;99468.00;;;-2.51;77.25
45369;BME280;51342;55.250;37.668;2023-01-29T09:10:43;99461.47;;;-2.49;77.32
45369;BME280;51342;55.250;37.668;2023-01-29T09:13:14;99461.22;;;-2.44;77.28
45369;BME280;51342;55.250;37.668;2023-01-29T09:15:46;99459.56;;;-2.43;77.29
45369;BME280;51342;55.250;37.668;2023-01-29T09:18:17;99456.59;;;-2.39;77.26
45369;BME280;51342;55.250;37.668;2023-01-29T09:20:52;99459.88;;;-2.40;77.10
45369;BME280;51342;55.250;37.668;2023-01-29T09:23:29;99464.03;;;-2.41;77.32
45369;BME280;51342;55.250;37.668;2023-01-29T09:26:01;99465.06;;;-2.38;77.37
45369;BME280;51342;55.250;37.668;2023-01-29T09:28:32;99462.53;;;-2.38;77.35
45369;BME280;51342;55.250;37.668;2023-01-29T09:31:04;99461.09;;;-2.36;77.42
45369;BME280;51342;55.250;37.668;2023-01-29T09:33:35;99459.88;;;-2.40;77.33
45369;BME280;51342;55.250;37.668;2023-01-29T09:36:07;99456.75;;;-2.37;77.19
45369;BME280;51342;55.250;37.668;2023-01-29T09:38:39;99457.66;;;-2.37;77.29
45369;BME280;51342;55.250;37.668;2023-01-29T09:44:14;99455.13;;;-2.37;77.12
45369;BME280;51342;55.250;37.668;2023-01-29T09:46:49;99452.75;;;-2.35;77.34
45369;BME280;51342;55.250;37.668;2023-01-29T09:49:30;99443.50;;;-2.35;77.07
45369;BME280;51342;55.250;37.668;2023-01-29T09:52:11;99441.44;;;-2.30;77.23
45369;BME280;51342;55.250;37.668;2023-01-29T09:55:28;99442.75;;;-2.34;77.17
45369;BME280;51342;55.250;37.668;2023-01-29T09:58:34;99439.81;;;-2.30;77.07
45369;BME280;51342;55.250;37.668;2023-01-29T10:01:28;99434.06;;;-2.20;77.26
45369;BME280;51342;55.250;37.668;2023-01-29T10:08:06;99424.47;;;-2.23;77.10
45369;BME280;51342;55.250;37.668;2023-01-29T10:10:36;99413.19;;;-2.18;77.21
45369;BME280;51342;55.250;37.668;2023-01-29T10:13:22;99415.16;;;-2.15;77.14
45369;BME280;51342;55.250;37.668;2023-01-29T10:22:11;99408.59;;;-2.04;77.10
45369;BME280;51342;55.250;37.668;2023-01-29T10:24:53;99411.47;;;-2.01;77.10
45369;BME280;51342;55.250;37.668;2023-01-29T10:27:32;99401.94;;;-2.04;76.92
45369;BME280;51342;55.250;37.668;2023-01-29T10:30:36;99402.06;;;-2.02;76.94
45369;BME280;51342;55.250;37.668;2023-01-29T10:33:16;99399.25;;;-1.97;76.83
45369;BME280;51342;55.250;37.668;2023-01-29T10:35:52;99397.75;;;-1.95;77.04
45369;BME280;51342;55.250;37.668;2023-01-29T10:55:57;99342.91;;;-1.77;76.72
45369;BME280;51342;55.250;37.668;2023-01-29T10:58:56;99336.50;;;-1.73;76.57
45369;BME280;51342;55.250;37.668;2023-01-29T11:01:29;99338.16;;;-1.65;76.71
45369;BME280;51342;55.250;37.668;2023-01-29T11:04:03;99318.31;;;-1.61;76.48
45369;BME280;51342;55.250;37.668;2023-01-29T11:06:36;99323.09;;;-1.55;76.49
45369;BME280;51342;55.250;37.668;2023-01-29T11:12:03;99301.31;;;-1.62;76.32
45369;BME280;51342;55.250;37.668;2023-01-29T11:17:27;99282.81;;;-1.61;76.25
45369;BME280;51342;55.250;37.668;2023-01-29T11:20:00;99281.16;;;-1.60;75.83
45369;BME280;51342;55.250;37.668;2023-01-29T11:22:31;99280.72;;;-1.65;75.74
45369;BME280;51342;55.250;37.668;2023-01-29T11:25:16;99279.53;;;-1.68;75.60
45369;BME280;51342;55.250;37.668;2023-01-29T11:27:59;99289.81;;;-1.67;75.74
45369;BME280;51342;55.250;37.668;2023-01-29T11:30:37;99283.25;;;-1.65;75.56
45369;BME280;51342;55.250;37.668;2023-01-29T11:33:21;99285.78;;;-1.65;75.70
45369;BME280;51342;55.250;37.668;2023-01-29T11:35:57;99285.47;;;-1.59;75.61
45369;BME280;51342;55.250;37.668;2023-01-29T11:38:30;99284.16;;;-1.55;75.76
45369;BME280;51342;55.250;37.668;2023-01-29T11:41:06;99285.78;;;-1.56;75.65
45369;BME280;51342;55.250;37.668;2023-01-29T11:43:44;99286.69;;;-1.55;75.62
45369;BME280;51342;55.250;37.668;2023-01-29T11:46:15;99278.50;;;-1.53;75.53
45369;BME280;51342;55.250;37.668;2023-01-29T11:48:49;99275.97;;;-1.53;75.56
45369;BME280;51342;55.250;37.668;2023-01-29T11:51:26;99288.47;;;-1.54;75.32
45369;BME280;51342;55.250;37.668;2023-01-29T11:54:01;99276.41;;;-1.57;75.41
45369;BME280;51342;55.250;37.668;2023-01-29T11:56:40;99286.41;;;-1.58;75.45
45369;BME280;51342;55.250;37.668;2023-01-29T12:05:01;99274.31;;;-1.70;75.48
45369;BME280;51342;55.250;37.668;2023-01-29T12:07:40;99265.50;;;-1.73;75.59
45369;BME280;51342;55.250;37.668;2023-01-29T12:15:51;99276.88;;;-1.70;75.64
45369;BME280;51342;55.250;37.668;2023-01-29T12:18:36;99276.41;;;-1.92;76.07
45369;BME280;51342;55.250;37.668;2023-01-29T12:21:31;99275.50;;;-1.83;75.63
45369;BME280;51342;55.250;37.668;2023-01-29T12:24:17;99276.38;;;-1.83;75.47
45369;BME280;51342;55.250;37.668;2023-01-29T12:27:14;99277.75;;;-1.87;75.75
45369;BME280;51342;55.250;37.668;2023-01-29T12:30:24;99264.75;;;-1.90;75.39
45369;BME280;51342;55.250;37.668;2023-01-29T12:38:43;99255.22;;;-1.92;75.64
45369;BME280;51342;55.250;37.668;2023-01-29T12:41:40;99252.97;;;-1.98;75.47
45369;BME280;51342;55.250;37.668;2023-01-29T12:44:27;99249.69;;;-1.97;75.52
45369;BME280;51342;55.250;37.668;2023-01-29T12:47:02;99246.81;;;-2.17;76.17
45369;BME280;51342;55.250;37.668;2023-01-29T12:49:38;99250.56;;;-2.05;75.92
45369;BME280;51342;55.250;37.668;2023-01-29T12:52:36;99251.44;;;-2.04;75.55
45369;BME280;51342;55.250;37.668;2023-01-29T12:55:24;99243.72;;;-2.06;75.63
45369;BME280;51342;55.250;37.668;2023-01-29T12:58:03;99248.91;;;-2.04;75.75
45369;BME280;51342;55.250;37.668;2023-01-29T13:00:37;99246.38;;;-2.04;75.64
45369;BME280;51342;55.250;37.668;2023-01-29T13:06:00;99241.78;;;-2.08;75.66
45369;BME280;51342;55.250;37.668;2023-01-29T13:08:47;99238.97;;;-2.03;75.79
45369;BME280;51342;55.250;37.668;2023-01-29T13:17:32;99242.34;;;-2.11;75.65
45369;BME280;51342;55.250;37.668;2023-01-29T13:20:15;99247.59;;;-2.09;75.66
45369;BME280;51342;55.250;37.668;2023-01-29T13:22:49;99238.19;;;-2.10;75.72
45369;BME280;51342;55.250;37.668;2023-01-29T13:25:22;99238.50;;;-2.07;75.70
45369;BME280;51342;55.250;37.668;2023-01-29T13:27:54;99239.38;;;-2.07;75.68
45369;BME280;51342;55.250;37.668;2023-01-29T13:30:28;99239.06;;;-2.10;75.50
45369;BME280;51342;55.250;37.668;2023-01-29T13:33:01;99234.75;;;-2.11;75.50
45369;BME280;51342;55.250;37.668;2023-01-29T13:35:44;99232.69;;;-2.15;75.77
45369;BME280;51342;55.250;37.668;2023-01-29T13:38:36;99228.63;;;-2.22;75.60
45369;BME280;51342;55.250;37.668;2023-01-29T13:41:07;99228.19;;;-2.18;75.72
45369;BME280;51342;55.250;37.668;2023-01-29T13:43:40;99226.41;;;-2.19;75.54
45369;BME280;51342;55.250;37.668;2023-01-29T13:46:15;99227.91;;;-2.21;75.83
45369;BME280;51342;55.250;37.668;2023-01-29T13:48:51;99222.91;;;-2.45;76.27
45369;BME280;51342;55.250;37.668;2023-01-29T13:51:32;99221.31;;;-2.36;76.05
45369;BME280;51342;55.250;37.668;2023-01-29T13:54:13;99220.88;;;-2.32;75.80
45369;BME280;51342;55.250;37.668;2023-01-29T13:57:00;99218.03;;;-2.35;75.72
45369;BME280;51342;55.250;37.668;2023-01-29T13:59:58;99222.81;;;-2.38;75.84
45369;BME280;51342;55.250;37.668;2023-01-29T14:02:29;99216.38;;;-2.34;75.97
45369;BME280;51342;55.250;37.668;2023-01-29T14:08:05;99219.34;;;-2.38;75.76
45369;BME280;51342;55.250;37.668;2023-01-29T14:10:36;99217.00;;;-2.37;76.13
45369;BME280;51342;55.250;37.668;2023-01-29T14:18:29;99208.78;;;-2.43;76.02
45369;BME280;51342;55.250;37.668;2023-01-29T14:21:06;99213.69;;;-2.45;76.08
45369;BME280;51342;55.250;37.668;2023-01-29T14:23:52;99207.72;;;-2.45;76.00
45369;BME280;51342;55.250;37.668;2023-01-29T14:26:31;99213.53;;;-2.46;75.93
45369;BME280;51342;55.250;37.668;2023-01-29T14:29:05;99211.00;;;-2.46;76.31
45369;BME280;51342;55.250;37.668;2023-01-29T14:34:28;99200.28;;;-2.52;76.03
45369;BME280;51342;55.250;37.668;2023-01-29T14:37:25;99207.72;;;-2.54;76.25
45369;BME280;51342;55.250;37.668;2023-01-29T14:42:58;99200.28;;;-2.52;76.20
45369;BME280;51342;55.250;37.668;2023-01-29T14:45:33;99204.44;;;-2.53;76.08
45369;BME280;51342;55.250;37.668;2023-01-29T14:50:46;99199.94;;;-2.55;76.28
45369;BME280;51342;55.250;37.668;2023-01-29T14:53:42;99207.41;;;-2.57;76.17
45369;BME280;51342;55.250;37.668;2023-01-29T14:56:32;99203.97;;;-2.57;76.33
45369;BME280;51342;55.250;37.668;2023-01-29T14:59:25;99198.44;;;-2.62;75.67
45369;BME280;51342;55.250;37.668;2023-01-29T15:02:04;99196.81;;;-2.61;76.19
45369;BME280;51342;55.250;37.668;2023-01-29T15:04:47;99196.97;;;-2.60;76.11
45369;BME280;51342;55.250;37.668;2023-01-29T15:07:34;99195.78;;;-2.63;76.24
45369;BME280;51342;55.250;37.668;2023-01-29T15:10:25;99204.88;;;-2.65;76.37
45369;BME280;51342;55.250;37.668;2023-01-29T15:13:18;99198.00;;;-2.67;76.34
45369;BME280;51342;55.250;37.668;2023-01-29T15:15:55;99201.59;;;-2.64;76.30
45369;BME280;51342;55.250;37.668;2023-01-29T15:18:38;99192.19;;;-2.65;76.38
45369;BME280;51342;55.250;37.668;2023-01-29T15:21:12;99194.13;;;-2.63;76.29
45369;BME280;51342;55.250;37.668;2023-01-29T15:23:45;99185.50;;;-2.65;76.46
45369;BME280;51342;55.250;37.668;2023-01-29T15:26:21;99194.88;;;-2.64;76.40
45369;BME280;51342;55.250;37.668;2023-01-29T15:28:58;99194.00;;;-2.64;76.16
45369;BME280;51342;55.250;37.668;2023-01-29T15:31:30;99200.84;;;-2.63;76.35
45369;BME280;51342;55.250;37.668;2023-01-29T15:34:05;99205.16;;;-2.62;76.30
45369;BME280;51342;55.250;37.668;2023-01-29T15:36:37;99202.63;;;-2.62;76.30
45369;BME280;51342;55.250;37.668;2023-01-29T15:41:43;99197.41;;;-2.64;76.43
45369;BME280;51342;55.250;37.668;2023-01-29T15:44:17;99203.50;;;-2.62;76.32